createdAt,value
2017-07-29T00:00:03.820Z,0
2017-07-29T00:01:05.555Z,0
2017-07-29T00:02:08.554Z,0
2017-07-29T00:03:10.313Z,0
2017-07-29T00:04:12.037Z,0
2017-07-29T00:05:18.336Z,0
2017-07-29T00:06:20.049Z,0
2017-07-29T00:07:23.719Z,0
2017-07-29T00:08:25.451Z,0
2017-07-29T02:59:24.037Z,0
2017-07-29T03:00:26.328Z,0
2017-07-29T05:47:00.371Z,2144
2017-07-29T05:48:02.114Z,2412
2017-07-29T05:52:02.254Z,748
2017-07-29T05:53:04.007Z,776
2017-07-29T05:54:05.770Z,944
2017-07-29T05:55:07.531Z,1444
2017-07-29T05:56:09.351Z,2192
2017-07-29T05:57:11.073Z,2288
2017-07-29T05:58:12.864Z,2272
2017-07-29T05:59:14.602Z,2432
2017-07-29T06:00:16.366Z,2624
2017-07-29T06:01:18.089Z,2668
2017-07-29T06:02:19.858Z,2860
2017-07-29T06:03:21.511Z,3080
2017-07-29T06:04:23.264Z,2816
2017-07-29T06:05:24.979Z,2176
2017-07-29T06:06:26.746Z,2084
2017-07-29T06:07:28.470Z,2292
2017-07-29T06:08:30.180Z,2580
2017-07-29T06:09:31.900Z,2580
2017-07-29T06:10:33.737Z,2876
2017-07-29T06:11:35.986Z,3112
2017-07-29T06:12:37.746Z,3108
2017-07-29T06:13:39.473Z,3000
2017-07-29T06:14:41.185Z,2696
2017-07-29T06:15:42.903Z,2504
2017-07-29T06:16:44.738Z,2464
2017-07-29T06:17:46.484Z,2348
2017-07-29T06:18:49.261Z,2184
2017-07-29T06:19:50.923Z,1968
2017-07-29T06:20:52.785Z,1936
2017-07-29T06:21:56.504Z,1980
2017-07-29T06:22:58.308Z,1840
2017-07-29T06:24:00.072Z,1776
2017-07-29T06:25:08.568Z,1868
2017-07-29T06:26:10.290Z,2116
2017-07-29T06:27:25.026Z,2228
2017-07-29T06:28:26.773Z,2096
2017-07-29T06:29:41.592Z,2152
2017-07-29T06:30:43.363Z,2084
2017-07-29T06:31:47.118Z,1988
2017-07-29T06:32:48.796Z,2072
2017-07-29T07:12:13.924Z,1740
2017-07-29T07:13:16.780Z,2412
2017-07-29T07:14:18.485Z,2976
2017-07-29T07:15:26.124Z,3032
2017-07-29T07:16:27.862Z,3092
2017-07-29T07:17:41.182Z,2836
2017-07-29T07:18:42.909Z,2496
2017-07-29T07:23:34.293Z,2404
2017-07-29T07:24:36.015Z,2452
2017-07-29T07:25:38.877Z,2616
2017-07-29T07:26:40.581Z,2668
2017-07-29T07:27:49.036Z,2480
2017-07-29T07:28:50.821Z,2644
2017-07-29T07:29:53.625Z,2620
2017-07-29T07:30:55.425Z,2752
2017-07-29T07:31:58.248Z,2620
2017-07-29T07:33:00.005Z,2396
2017-07-29T07:34:06.566Z,2332
2017-07-29T07:35:08.295Z,2232
2017-07-29T07:36:10.061Z,1616
2017-07-29T07:37:11.780Z,1528
2017-07-29T07:38:14.566Z,1640
2017-07-29T07:39:16.313Z,1768
2017-07-29T07:40:18.115Z,1832
2017-07-29T07:41:20.098Z,2004
2017-07-29T07:42:21.818Z,2476
2017-07-29T07:43:23.582Z,2976
2017-07-29T07:44:25.239Z,2940
2017-07-29T07:45:26.988Z,2612
2017-07-29T07:46:28.655Z,2292
2017-07-29T07:47:31.421Z,2496
2017-07-29T07:48:33.090Z,2348
2017-07-29T07:49:34.995Z,2308
2017-07-29T07:50:36.674Z,2316
2017-07-29T07:51:38.403Z,2484
2017-07-29T07:52:40.057Z,2380
2017-07-29T07:53:41.794Z,2704
2017-07-29T07:54:43.450Z,3172
2017-07-29T07:55:46.253Z,2616
2017-07-29T07:56:48.897Z,2940
2017-07-29T07:57:50.738Z,3812
2017-07-29T07:58:52.390Z,3908
2017-07-29T07:59:56.144Z,3436
2017-07-29T08:00:57.979Z,2744
2017-07-29T08:02:00.966Z,2968
2017-07-29T08:03:02.640Z,2404
2017-07-29T08:04:04.566Z,2244
2017-07-29T08:05:06.274Z,1948
2017-07-29T08:06:14.720Z,1492
2017-07-29T08:07:16.462Z,1464
2017-07-29T08:08:19.220Z,1768
2017-07-29T08:09:20.927Z,1344
2017-07-29T08:10:23.730Z,1324
2017-07-29T08:11:25.452Z,1940
2017-07-29T08:12:33.162Z,1916
2017-07-29T08:13:34.815Z,2000
2017-07-29T08:14:43.417Z,2540
2017-07-29T08:15:45.752Z,1764
2017-07-29T08:16:49.595Z,1608
2017-07-29T08:17:51.340Z,2244
2017-07-29T08:18:54.129Z,2360
2017-07-29T08:19:55.860Z,2584
2017-07-29T08:20:59.687Z,3096
2017-07-29T08:22:01.369Z,2856
2017-07-29T08:23:03.129Z,2920
2017-07-29T08:24:04.779Z,2532
2017-07-29T08:25:07.545Z,2464
2017-07-29T08:26:09.199Z,2116
2017-07-29T08:27:11.992Z,1880
2017-07-29T08:28:14.075Z,2292
2017-07-29T08:29:16.793Z,3312
2017-07-29T08:30:18.513Z,3660
2017-07-29T08:31:20.344Z,3564
2017-07-29T08:32:22.059Z,3552
2017-07-29T08:33:23.815Z,3772
2017-07-29T08:34:25.544Z,3284
2017-07-29T08:35:27.331Z,3400
2017-07-29T08:36:29.096Z,3364
2017-07-29T08:37:30.817Z,3452
2017-07-29T08:38:32.583Z,3356
2017-07-29T08:39:34.313Z,3196
2017-07-29T08:40:36.075Z,2884
2017-07-29T08:41:37.812Z,2708
2017-07-29T08:42:39.580Z,2604
2017-07-29T08:43:41.306Z,2744
2017-07-29T08:44:43.014Z,2828
2017-07-29T08:45:44.734Z,2496
2017-07-29T08:46:46.461Z,2272
2017-07-29T08:47:48.284Z,1956
2017-07-29T08:48:50.016Z,2112
2017-07-29T08:49:51.670Z,2200
2017-07-29T08:50:53.400Z,2196
2017-07-29T08:51:55.053Z,2468
2017-07-29T08:52:56.841Z,2456
2017-07-29T08:53:58.561Z,2256
2017-07-29T08:55:00.335Z,1628
2017-07-29T08:56:02.061Z,1392
2017-07-29T08:57:03.895Z,1596
2017-07-29T08:58:05.642Z,2100
2017-07-29T08:59:07.452Z,1644
2017-07-29T09:00:09.157Z,1652
2017-07-29T09:01:10.996Z,1444
2017-07-29T09:02:12.713Z,1704
2017-07-29T09:03:14.544Z,1988
2017-07-29T09:04:16.273Z,1904
2017-07-29T09:05:18.046Z,2276
2017-07-29T09:06:19.790Z,2096
2017-07-29T09:07:21.581Z,1884
2017-07-29T09:08:23.309Z,2964
2017-07-29T09:09:25.098Z,2368
2017-07-29T09:10:26.754Z,1840
2017-07-29T09:11:28.540Z,2292
2017-07-29T09:12:30.274Z,1940
2017-07-29T09:13:32.030Z,2212
2017-07-29T09:14:33.768Z,3228
2017-07-29T09:15:36.476Z,3820
2017-07-29T09:16:38.196Z,2728
2017-07-29T09:17:39.872Z,2744
2017-07-29T09:18:41.595Z,2388
2017-07-29T09:19:43.435Z,2744
2017-07-29T09:20:45.149Z,2632
2017-07-29T09:21:46.935Z,2764
2017-07-29T09:22:48.639Z,2620
2017-07-29T09:23:50.432Z,2464
2017-07-29T09:24:52.157Z,2652
2017-07-29T09:25:53.932Z,2380
2017-07-29T09:26:55.659Z,2748
2017-07-29T09:27:57.385Z,3360
2017-07-29T09:28:59.094Z,3320
2017-07-29T09:30:00.899Z,2300
2017-07-29T09:31:02.630Z,2836
2017-07-29T09:32:04.358Z,3036
2017-07-29T09:33:06.036Z,2428
2017-07-29T09:34:07.758Z,2752
2017-07-29T09:35:09.411Z,1812
2017-07-29T09:36:11.211Z,1600
2017-07-29T09:37:12.932Z,1588
2017-07-29T09:38:14.688Z,1888
2017-07-29T09:39:16.450Z,1712
2017-07-29T09:40:18.331Z,1096
2017-07-29T09:41:20.063Z,940
2017-07-29T09:42:21.881Z,912
2017-07-29T09:43:23.543Z,1044
2017-07-29T09:44:25.391Z,1072
2017-07-29T09:45:27.108Z,944
2017-07-29T09:46:28.937Z,1028
2017-07-29T09:47:30.821Z,1104
2017-07-29T09:48:32.635Z,1560
2017-07-29T09:49:34.364Z,1696
2017-07-29T09:50:36.317Z,1624
2017-07-29T09:51:38.047Z,1688
2017-07-29T09:52:39.838Z,1956
2017-07-29T09:53:41.560Z,2616
2017-07-29T09:54:43.301Z,2828
2017-07-29T09:55:45.028Z,2976
2017-07-29T09:56:46.839Z,3320
2017-07-29T09:57:48.597Z,3324
2017-07-29T09:58:50.518Z,2812
2017-07-29T09:59:52.229Z,2712
2017-07-29T10:00:54.024Z,2844
2017-07-29T10:01:55.946Z,2920
2017-07-29T10:02:57.740Z,3552
2017-07-29T10:03:59.451Z,3928
2017-07-29T10:05:01.223Z,3568
2017-07-29T10:06:02.874Z,3176
2017-07-29T10:07:04.697Z,3072
2017-07-29T10:08:06.936Z,3180
2017-07-29T10:09:08.819Z,3172
2017-07-29T10:10:10.530Z,2788
2017-07-29T10:11:12.393Z,2076
2017-07-29T10:12:14.171Z,2356
2017-07-29T10:13:15.881Z,2648
2017-07-29T10:14:17.602Z,2964
2017-07-29T10:15:19.397Z,2180
2017-07-29T10:16:21.144Z,2364
2017-07-29T10:17:23.086Z,2384
2017-07-29T10:18:24.797Z,2468
2017-07-29T10:19:26.623Z,2612
2017-07-29T10:20:28.413Z,3324
2017-07-29T10:21:30.137Z,3344
2017-07-29T10:22:31.836Z,2876
2017-07-29T10:23:33.531Z,2864
2017-07-29T10:24:35.257Z,3332
2017-07-29T10:25:37.085Z,3324
2017-07-29T10:26:38.813Z,2624
2017-07-29T10:27:40.569Z,3092
2017-07-29T10:28:42.228Z,3712
2017-07-29T10:29:44.109Z,3784
2017-07-29T10:30:45.908Z,3708
2017-07-29T10:31:47.617Z,3476
2017-07-29T10:32:49.357Z,2856
2017-07-29T10:33:51.160Z,2392
2017-07-29T10:34:52.889Z,3036
2017-07-29T10:35:54.656Z,3324
2017-07-29T10:36:56.375Z,2500
2017-07-29T10:37:58.160Z,1968
2017-07-29T10:38:59.883Z,1448
2017-07-29T10:40:01.650Z,1336
2017-07-29T10:41:03.385Z,2028
2017-07-29T10:42:05.952Z,1352
2017-07-29T10:43:07.680Z,1376
2017-07-29T10:44:09.464Z,1068
2017-07-29T10:45:11.215Z,1044
2017-07-29T10:46:13.682Z,1016
2017-07-29T10:47:15.645Z,820
2017-07-29T10:48:17.436Z,1164
2017-07-29T10:49:19.390Z,1228
2017-07-29T10:50:21.172Z,1480
2017-07-29T10:51:22.904Z,1596
2017-07-29T10:52:24.647Z,1456
2017-07-29T10:53:26.365Z,1596
2017-07-29T10:54:28.095Z,2180
2017-07-29T10:55:29.815Z,1976
2017-07-29T10:56:31.566Z,1376
2017-07-29T10:57:33.300Z,1200
2017-07-29T10:58:35.045Z,1760
2017-07-29T10:59:36.804Z,2752
2017-07-29T11:00:38.655Z,2904
2017-07-29T11:01:40.385Z,2652
2017-07-29T11:02:42.143Z,2456
2017-07-29T11:03:43.876Z,2320
2017-07-29T11:04:45.579Z,2484
2017-07-29T11:05:47.304Z,2196
2017-07-29T11:06:49.138Z,2280
2017-07-29T11:07:50.882Z,2524
2017-07-29T11:08:52.622Z,2540
2017-07-29T11:09:54.310Z,2036
2017-07-29T11:10:56.154Z,2520
2017-07-29T11:11:57.876Z,2652
2017-07-29T11:13:00.626Z,2776
2017-07-29T11:14:02.351Z,2784
2017-07-29T11:15:04.081Z,2492
2017-07-29T11:16:05.804Z,2056
2017-07-29T11:17:07.627Z,1724
2017-07-29T11:18:09.349Z,2412
2017-07-29T11:19:11.127Z,2740
2017-07-29T11:20:12.824Z,2820
2017-07-29T11:21:14.749Z,2556
2017-07-29T11:22:16.470Z,1932
2017-07-29T11:23:18.235Z,2688
2017-07-29T11:24:19.955Z,2272
2017-07-29T11:25:21.652Z,2304
2017-07-29T11:26:23.371Z,2288
2017-07-29T11:27:25.198Z,1960
2017-07-29T11:28:26.920Z,1620
2017-07-29T11:29:28.637Z,1712
2017-07-29T11:30:30.429Z,1508
2017-07-29T11:31:36.181Z,1788
2017-07-29T11:32:37.855Z,1976
2017-07-29T11:33:39.713Z,2172
2017-07-29T11:34:41.444Z,2536
2017-07-29T11:35:43.166Z,2028
2017-07-29T11:36:44.980Z,1752
2017-07-29T11:37:46.788Z,1724
2017-07-29T11:38:48.550Z,1588
2017-07-29T11:39:51.293Z,1868
2017-07-29T11:40:53.397Z,2036
2017-07-29T11:41:55.048Z,1848
2017-07-29T11:42:56.777Z,1520
2017-07-29T11:43:58.439Z,1996
2017-07-29T11:45:00.846Z,1936
2017-07-29T11:46:02.613Z,2648
2017-07-29T11:47:04.751Z,2992
2017-07-29T11:48:06.494Z,2468
2017-07-29T11:49:08.464Z,2080
2017-07-29T11:50:10.175Z,1652
2017-07-29T11:51:13.663Z,1132
2017-07-29T11:52:15.411Z,1072
2017-07-29T11:53:17.139Z,1084
2017-07-29T11:54:18.852Z,1268
2017-07-29T11:55:20.579Z,1344
2017-07-29T11:56:22.317Z,1352
2017-07-29T11:57:24.050Z,1560
2017-07-29T11:58:25.797Z,1600
2017-07-29T11:59:28.882Z,1588
2017-07-29T12:00:31.580Z,1908
2017-07-29T12:01:34.200Z,2096
2017-07-29T12:02:37.112Z,2076
2017-07-29T12:03:41.519Z,1728
2017-07-29T12:04:43.069Z,1884
2017-07-29T12:05:44.837Z,2032
2017-07-29T12:06:47.438Z,2188
2017-07-29T12:07:48.916Z,2136
2017-07-29T12:08:55.584Z,2336
2017-07-29T12:09:57.170Z,2900
2017-07-29T12:10:58.901Z,3108
2017-07-29T12:12:00.637Z,2944
2017-07-29T12:13:04.408Z,2676
2017-07-29T12:14:06.493Z,2640
2017-07-29T12:15:08.256Z,2200
2017-07-29T12:16:09.983Z,1608
2017-07-29T12:17:11.801Z,1204
2017-07-29T12:18:13.862Z,980
2017-07-29T12:19:15.671Z,972
2017-07-29T12:20:17.743Z,928
2017-07-29T12:21:19.534Z,956
2017-07-29T12:22:21.343Z,1416
2017-07-29T12:23:23.122Z,1552
2017-07-29T12:24:24.909Z,1212
2017-07-29T12:25:27.604Z,1060
2017-07-29T12:26:29.328Z,1188
2017-07-29T12:27:36.694Z,1164
2017-07-29T12:28:38.441Z,940
2017-07-29T12:29:46.138Z,864
2017-07-29T12:30:48.424Z,976
2017-07-29T12:31:51.158Z,1424
2017-07-29T12:32:52.931Z,1620
2017-07-29T12:33:55.291Z,1780
2017-07-29T12:34:56.942Z,2292
2017-07-29T12:36:04.670Z,2756
2017-07-29T12:37:06.501Z,3008
2017-07-29T12:38:13.186Z,2560
2017-07-29T12:39:14.961Z,2972
2017-07-29T12:40:23.663Z,2896
2017-07-29T12:41:25.605Z,2832
2017-07-29T12:42:33.108Z,2696
2017-07-29T12:43:34.896Z,2792
2017-07-29T12:44:36.651Z,2980
2017-07-29T12:45:38.370Z,2872
2017-07-29T12:46:40.110Z,2460
2017-07-29T12:47:46.420Z,2148
2017-07-29T12:48:49.513Z,2104
2017-07-29T12:49:51.660Z,1864
2017-07-29T12:51:10.384Z,1884
2017-07-29T12:52:12.192Z,2240
2017-07-29T12:53:14.981Z,2548
2017-07-29T12:54:16.780Z,2400
2017-07-29T12:55:18.524Z,2124
2017-07-29T12:56:20.291Z,1860
2017-07-29T12:57:22.426Z,1556
2017-07-29T12:58:24.205Z,1576
2017-07-29T12:59:26.091Z,1364
2017-07-29T13:00:27.793Z,1304
2017-07-29T13:01:29.585Z,1216
2017-07-29T13:02:31.360Z,1812
2017-07-29T13:03:33.116Z,2096
2017-07-29T13:04:34.886Z,2372
2017-07-29T13:05:36.625Z,2408
2017-07-29T13:06:38.396Z,1960
2017-07-29T13:07:40.172Z,1884
2017-07-29T13:08:41.925Z,1832
2017-07-29T13:09:43.708Z,1472
2017-07-29T13:10:45.510Z,1392
2017-07-29T13:11:47.397Z,1328
2017-07-29T13:12:48.982Z,1244
2017-07-29T13:13:50.665Z,1540
2017-07-29T13:14:52.409Z,1636
2017-07-29T13:15:54.072Z,1712
2017-07-29T13:16:55.832Z,1936
2017-07-29T13:17:57.558Z,2344
2017-07-29T13:18:59.304Z,2280
2017-07-29T13:20:01.041Z,2492
2017-07-29T13:21:02.722Z,2644
2017-07-29T13:22:09.225Z,2820
2017-07-29T13:23:10.945Z,2924
2017-07-29T13:24:12.740Z,2932
2017-07-29T13:25:14.392Z,3096
2017-07-29T13:26:16.134Z,3192
2017-07-29T13:27:17.845Z,2980
2017-07-29T13:28:21.577Z,3012
2017-07-29T13:29:23.309Z,2780
2017-07-29T13:30:25.075Z,2616
2017-07-29T13:31:26.828Z,2276
2017-07-29T13:32:28.569Z,2320
2017-07-29T13:33:30.376Z,2420
2017-07-29T13:34:32.110Z,2408
2017-07-29T13:35:33.850Z,2084
2017-07-29T13:36:35.591Z,2004
2017-07-29T13:37:37.286Z,1864
2017-07-29T13:38:39.109Z,1796
2017-07-29T13:39:42.291Z,1772
2017-07-29T13:40:44.021Z,1896
2017-07-29T13:41:46.032Z,1912
2017-07-29T13:42:47.763Z,1996
2017-07-29T13:43:49.480Z,2000
2017-07-29T13:44:51.233Z,1976
2017-07-29T13:45:52.996Z,1888
2017-07-29T13:46:56.850Z,1892
2017-07-29T13:47:58.614Z,1692
2017-07-29T13:49:02.377Z,1292
2017-07-29T13:50:04.028Z,1384
2017-07-29T13:51:07.758Z,1396
2017-07-29T13:52:09.480Z,1340
2017-07-29T13:53:11.200Z,1504
2017-07-29T13:54:12.961Z,2232
2017-07-29T13:56:24.574Z,2704
2017-07-29T13:57:26.237Z,2776
2017-07-29T13:59:18.403Z,2256
2017-07-29T14:00:20.140Z,2324
2017-07-29T14:01:21.802Z,2616
2017-07-29T14:02:23.573Z,2768
2017-07-29T14:03:26.323Z,2692
2017-07-29T14:04:28.042Z,2652
2017-07-29T14:05:29.774Z,2664
2017-07-29T14:06:31.505Z,2416
2017-07-29T14:07:33.251Z,2172
2017-07-29T14:08:34.926Z,1928
2017-07-29T14:09:36.630Z,1684
2017-07-29T14:10:38.353Z,1664
2017-07-29T14:11:40.115Z,1604
2017-07-29T14:12:41.840Z,1576
2017-07-29T14:14:53.504Z,1324
2017-07-29T14:15:55.221Z,1400
2017-07-29T14:16:56.994Z,1500
2017-07-29T14:17:59.771Z,1336
2017-07-29T14:19:01.435Z,1276
2017-07-29T14:20:03.164Z,1428
2017-07-29T14:21:04.911Z,1532
2017-07-29T14:22:11.609Z,1452
2017-07-29T14:23:13.402Z,1428
2017-07-29T14:24:15.107Z,1436
2017-07-29T14:25:16.849Z,1496
2017-07-29T14:26:30.098Z,1492
2017-07-29T14:27:31.843Z,1560
2017-07-29T14:28:33.594Z,1632
2017-07-29T14:29:35.313Z,1696
2017-07-29T14:30:39.048Z,1568
2017-07-29T14:31:40.776Z,1568
2017-07-29T14:32:42.438Z,1864
2017-07-29T14:33:44.185Z,1868
2017-07-29T14:34:51.613Z,1920
2017-07-29T14:35:53.348Z,1724
2017-07-29T14:37:01.611Z,1732
2017-07-29T14:38:03.277Z,1696
2017-07-29T14:41:43.414Z,1796
2017-07-29T14:42:45.141Z,1992
2017-07-29T14:43:46.861Z,1788
2017-07-29T14:44:48.599Z,1464
2017-07-29T14:45:50.405Z,1320
2017-07-29T14:46:53.146Z,1676
2017-07-29T14:47:54.877Z,1844
2017-07-29T14:48:57.650Z,1876
2017-07-29T14:49:59.375Z,2036
2017-07-29T14:51:01.126Z,1904
2017-07-29T14:52:02.853Z,1708
2017-07-29T14:53:09.117Z,1640
2017-07-29T14:54:10.838Z,1528
2017-07-29T14:55:17.099Z,1728
2017-07-29T14:56:18.846Z,1864
2017-07-29T14:57:27.035Z,2096
2017-07-29T14:58:28.757Z,2044
2017-07-29T14:59:37.098Z,1800
2017-07-29T15:00:38.824Z,2032
2017-07-29T15:01:40.540Z,1968
2017-07-29T15:02:42.259Z,1824
2017-07-29T15:03:49.636Z,1824
2017-07-29T15:04:51.369Z,1480
2017-07-29T15:06:03.608Z,1276
2017-07-29T15:07:05.326Z,1144
2017-07-29T15:08:07.065Z,1072
2017-07-29T15:09:08.768Z,880
2017-07-29T15:10:25.046Z,816
2017-07-29T15:11:26.796Z,740
2017-07-29T15:12:29.519Z,884
2017-07-29T15:13:31.255Z,1092
2017-07-29T15:14:37.580Z,1248
2017-07-29T15:15:39.796Z,1224
2017-07-29T15:16:41.595Z,1140
2017-07-29T15:17:43.335Z,1228
2017-07-29T15:18:55.601Z,1072
2017-07-29T15:19:57.337Z,912
2017-07-29T15:21:01.085Z,996
2017-07-29T15:22:02.747Z,968
2017-07-29T15:23:04.493Z,984
2017-07-29T15:24:06.227Z,836
2017-07-29T15:25:07.960Z,816
2017-07-29T15:26:09.686Z,860
2017-07-29T15:27:12.741Z,820
2017-07-29T15:28:14.324Z,772
2017-07-29T15:29:21.639Z,780
2017-07-29T15:30:23.361Z,636
2017-07-29T15:31:27.101Z,576
2017-07-29T15:32:28.827Z,568
2017-07-29T15:33:30.558Z,616
2017-07-29T15:34:32.297Z,628
2017-07-29T15:35:40.630Z,668
2017-07-29T15:36:42.435Z,700
2017-07-29T15:37:50.071Z,760
2017-07-29T15:38:51.796Z,788
2017-07-29T15:39:55.456Z,940
2017-07-29T15:40:57.173Z,1044
2017-07-29T15:41:58.909Z,1388
2017-07-29T15:43:00.644Z,2184
2017-07-29T15:44:02.363Z,1964
2017-07-29T15:45:04.132Z,1900
2017-07-29T15:46:05.857Z,1920
2017-07-29T15:47:07.517Z,1772
2017-07-29T15:48:10.893Z,1764
2017-07-29T15:49:12.514Z,1712
2017-07-29T15:50:20.190Z,1584
2017-07-29T15:51:21.918Z,1524
2017-07-29T15:52:30.639Z,1684
2017-07-29T15:53:32.377Z,1700
2017-07-29T16:00:04.706Z,1220
2017-07-29T16:01:06.431Z,1260
2017-07-29T16:02:25.122Z,1228
2017-07-29T16:03:26.842Z,1216
2017-07-29T16:04:33.087Z,1212
2017-07-29T16:05:34.785Z,1180
2017-07-29T16:06:37.632Z,1140
2017-07-29T16:07:39.389Z,912
2017-07-29T16:08:43.175Z,552
2017-07-29T16:09:44.951Z,412
2017-07-29T16:10:53.619Z,528
2017-07-29T16:11:55.350Z,528
2017-07-29T16:12:57.097Z,472
2017-07-29T16:13:58.835Z,372
2017-07-29T16:15:06.121Z,320
2017-07-29T16:16:07.809Z,284
2017-07-29T16:17:10.536Z,276
2017-07-29T16:18:12.188Z,304
2017-07-29T16:19:20.639Z,368
2017-07-29T16:20:22.369Z,388
2017-07-29T16:21:24.091Z,556
2017-07-29T16:22:25.747Z,720
2017-07-29T16:23:27.474Z,732
2017-07-29T16:24:29.193Z,652
2017-07-29T16:25:31.928Z,552
2017-07-29T16:26:33.660Z,412
2017-07-29T16:27:40.125Z,384
2017-07-29T16:28:42.457Z,600
2017-07-29T16:29:45.223Z,904
2017-07-29T16:30:46.942Z,1000
2017-07-29T16:31:48.661Z,1052
2017-07-29T16:32:50.317Z,1040
2017-07-29T16:33:52.048Z,1052
2017-07-29T16:34:53.774Z,1104
2017-07-29T16:35:55.506Z,1136
2017-07-29T16:36:57.223Z,1196
2017-07-29T16:37:59.022Z,996
2017-07-29T16:39:00.738Z,956
2017-07-29T16:40:02.404Z,800
2017-07-29T16:41:04.477Z,672
2017-07-29T16:42:07.531Z,628
2017-07-29T16:43:09.256Z,632
2017-07-29T16:44:10.946Z,892
2017-07-29T16:45:12.964Z,1124
2017-07-29T16:46:14.684Z,1328
2017-07-29T16:47:16.353Z,1388
2017-07-29T16:48:18.935Z,1396
2017-07-29T16:49:20.668Z,1276
2017-07-29T16:50:22.423Z,1168
2017-07-29T16:51:24.070Z,1160
2017-07-29T16:52:26.849Z,1188
2017-07-29T16:53:28.581Z,1144
2017-07-29T16:54:31.484Z,1188
2017-07-29T16:55:33.141Z,1296
2017-07-29T16:56:35.800Z,1340
2017-07-29T16:57:40.081Z,1296
2017-07-29T16:58:43.846Z,1080
2017-07-29T16:59:45.708Z,856
2017-07-29T17:00:47.429Z,800
2017-07-29T17:01:49.636Z,692
2017-07-29T17:02:51.376Z,632
2017-07-29T17:03:57.086Z,636
2017-07-29T17:05:00.284Z,596
2017-07-29T17:06:04.483Z,624
2017-07-29T17:07:06.249Z,636
2017-07-29T17:08:08.037Z,600
2017-07-29T17:09:10.701Z,568
2017-07-29T17:10:16.713Z,552
2017-07-29T17:11:19.153Z,540
2017-07-29T17:12:20.881Z,540
2017-07-29T17:13:22.657Z,576
2017-07-29T17:14:24.385Z,656
2017-07-29T17:15:26.179Z,716
2017-07-29T17:16:28.045Z,704
2017-07-29T17:17:29.732Z,728
2017-07-29T17:18:31.517Z,684
2017-07-29T17:19:33.198Z,620
2017-07-29T17:20:34.992Z,616
2017-07-29T17:21:38.582Z,632
2017-07-29T17:22:42.705Z,700
2017-07-29T17:23:44.816Z,692
2017-07-29T17:24:46.608Z,748
2017-07-29T17:25:48.398Z,816
2017-07-29T17:26:51.257Z,808
2017-07-29T17:27:53.027Z,804
2017-07-29T17:28:54.818Z,708
2017-07-29T17:29:56.576Z,668
2017-07-29T17:30:58.323Z,636
2017-07-29T17:32:00.069Z,628
2017-07-29T17:33:01.909Z,756
2017-07-29T17:34:03.647Z,760
2017-07-29T17:35:05.420Z,648
2017-07-29T17:36:07.168Z,628
2017-07-29T17:37:09.043Z,596
2017-07-29T17:38:10.774Z,676
2017-07-29T17:39:13.521Z,664
2017-07-29T17:40:15.241Z,624
2017-07-29T17:41:17.011Z,624
2017-07-29T17:42:18.676Z,612
2017-07-29T17:43:20.609Z,616
2017-07-29T17:44:22.376Z,536
2017-07-29T17:45:24.140Z,544
2017-07-29T17:46:25.826Z,564
2017-07-29T17:47:27.585Z,524
2017-07-29T17:48:29.314Z,532
2017-07-29T17:49:31.120Z,492
2017-07-29T17:50:32.789Z,440
2017-07-29T17:51:34.616Z,384
2017-07-29T17:52:36.339Z,360
2017-07-29T17:53:39.022Z,296
2017-07-29T17:54:41.544Z,248
2017-07-29T17:55:43.365Z,288
2017-07-29T17:56:45.322Z,268
2017-07-29T17:57:47.153Z,336
2017-07-29T17:58:49.541Z,328
2017-07-29T17:59:51.246Z,316
2017-07-29T18:00:52.945Z,340
2017-07-29T18:01:54.678Z,352
2017-07-29T18:02:56.367Z,352
2017-07-29T18:03:58.066Z,320
2017-07-29T18:04:59.745Z,292
2017-07-29T18:06:01.449Z,312
2017-07-29T18:07:03.228Z,312
2017-07-29T18:08:07.054Z,328
2017-07-29T18:09:08.710Z,340
2017-07-29T18:10:10.407Z,356
2017-07-29T18:11:12.307Z,368
2017-07-29T18:12:14.000Z,392
2017-07-29T18:13:15.655Z,388
2017-07-29T18:14:17.620Z,400
2017-07-29T18:15:19.301Z,432
2017-07-29T18:16:21.224Z,372
2017-07-29T18:17:22.900Z,324
2017-07-29T18:18:24.907Z,288
2017-07-29T18:19:26.602Z,268
2017-07-29T18:20:28.270Z,244
2017-07-29T18:21:29.948Z,244
2017-07-29T18:22:31.666Z,264
2017-07-29T18:23:33.369Z,256
2017-07-29T18:24:35.171Z,268
2017-07-29T18:25:36.832Z,240
2017-07-29T18:26:38.554Z,208
2017-07-29T18:27:40.411Z,188
2017-07-29T18:28:42.167Z,180
2017-07-29T18:29:43.940Z,160
2017-07-29T18:32:42.288Z,136
2017-07-29T18:33:45.273Z,132
2017-07-29T18:34:46.921Z,140
2017-07-29T18:35:51.111Z,148
2017-07-29T18:36:53.179Z,148
2017-07-29T18:37:54.952Z,152
2017-07-29T18:38:56.646Z,160
2017-07-29T18:39:59.273Z,160
2017-07-29T18:41:01.060Z,160
2017-07-29T18:42:03.736Z,152
2017-07-29T18:43:05.415Z,140
2017-07-29T18:44:09.185Z,124
2017-07-29T18:45:10.893Z,124
2017-07-29T18:46:15.577Z,116
2017-07-29T18:47:17.126Z,104
2017-07-29T18:49:57.603Z,84
2017-07-29T18:50:59.811Z,88
2017-07-29T18:52:01.611Z,84
2017-07-29T18:53:03.373Z,72
2017-07-29T18:54:06.063Z,64
2017-07-29T18:55:07.716Z,56
2017-07-29T18:56:09.469Z,60
2017-07-29T18:57:11.151Z,60
2017-07-29T18:58:12.847Z,48
2017-07-29T18:59:14.504Z,40
2017-07-29T19:00:16.234Z,40
2017-07-29T19:01:17.906Z,36
2017-07-29T19:02:19.629Z,32
2017-07-29T19:03:21.283Z,36
2017-07-29T19:04:23.021Z,36
2017-07-29T19:05:24.696Z,36
2017-07-29T19:06:26.638Z,40
2017-07-29T19:07:28.554Z,40
2017-07-29T19:08:30.217Z,40
2017-07-29T19:09:31.967Z,40
2017-07-29T19:10:33.898Z,40
2017-07-29T19:11:35.556Z,40
2017-07-29T19:12:37.218Z,40
2017-07-29T19:13:40.825Z,40
2017-07-29T19:14:42.541Z,44
2017-07-29T19:15:44.236Z,44
2017-07-29T19:16:45.961Z,40
2017-07-29T19:17:47.628Z,40
2017-07-29T19:18:49.329Z,36
2017-07-29T19:19:51.034Z,32
2017-07-29T19:20:53.881Z,32
2017-07-29T19:21:55.529Z,32
2017-07-29T19:22:57.288Z,28
2017-07-29T19:23:59.301Z,24
2017-07-29T19:25:02.194Z,20
2017-07-29T19:26:03.848Z,20
2017-07-29T19:27:05.578Z,20
2017-07-29T19:28:07.673Z,16
2017-07-29T19:29:09.618Z,16
2017-07-29T19:30:12.279Z,16
2017-07-29T19:31:17.024Z,12
2017-07-29T19:32:20.088Z,12
2017-07-29T19:33:21.817Z,8
2017-07-29T19:34:23.490Z,12
2017-07-29T19:35:25.337Z,8
2017-07-29T19:36:27.464Z,8
2017-07-29T19:37:29.197Z,4
2017-07-29T19:38:30.888Z,4
2017-07-29T19:39:32.598Z,4
2017-07-29T19:40:34.295Z,4
2017-07-29T19:41:36.029Z,4
2017-07-29T19:42:37.752Z,4
2017-07-29T19:43:39.534Z,0
2017-07-29T19:44:41.241Z,0
2017-07-29T19:45:42.963Z,0
2017-07-29T19:46:45.080Z,0
2017-07-29T19:47:46.828Z,0
2017-07-29T19:48:48.590Z,0
2017-07-29T19:49:50.554Z,0
2017-07-29T19:50:52.258Z,0
2017-07-29T19:51:54.005Z,0
2017-07-29T19:52:55.668Z,0
2017-07-29T19:53:57.412Z,0
2017-07-29T19:54:59.080Z,0
2017-07-29T19:56:00.740Z,0
2017-07-29T19:57:02.403Z,0
2017-07-29T19:58:04.156Z,0
2017-07-29T19:59:05.886Z,0
2017-07-29T20:00:08.576Z,0
2017-07-29T20:01:11.996Z,0
2017-07-29T20:02:13.597Z,0
2017-07-29T20:03:15.275Z,0
2017-07-29T20:04:17.212Z,0
2017-07-29T20:05:18.866Z,0
2017-07-29T20:06:20.683Z,0
2017-07-29T20:07:22.410Z,0
2017-07-29T20:08:25.410Z,0
2017-07-29T20:09:28.277Z,0
2017-07-29T20:10:31.499Z,0
2017-07-29T20:11:33.157Z,0
2017-07-29T20:12:35.385Z,0
2017-07-29T20:13:38.348Z,0
2017-07-29T20:14:40.187Z,0
2017-07-29T20:15:41.907Z,0
2017-07-29T20:16:48.415Z,0
2017-07-29T20:17:50.463Z,0
2017-07-29T20:18:52.117Z,0
2017-07-29T20:19:53.784Z,0
2017-07-29T20:20:55.455Z,0
2017-07-29T20:21:57.114Z,0
2017-07-29T20:22:58.881Z,0
2017-07-29T20:24:00.968Z,0
2017-07-29T20:25:02.675Z,0
2017-07-29T20:26:04.330Z,0
2017-07-29T20:27:06.136Z,0
2017-07-29T20:28:07.900Z,0
2017-07-29T20:29:09.769Z,0
2017-07-29T20:30:11.400Z,0
2017-07-29T20:31:13.239Z,0
2017-07-29T20:32:14.909Z,0
2017-07-29T20:33:16.757Z,0
2017-07-29T20:34:18.439Z,0
2017-07-29T20:35:22.314Z,0
2017-07-29T20:36:23.867Z,0
2017-07-29T20:37:25.612Z,0
2017-07-29T20:38:27.318Z,0
2017-07-29T20:39:29.006Z,0
2017-07-29T20:40:30.675Z,0
2017-07-29T20:41:33.344Z,0